createdAt,value
2022-10-03T00:06:34.008Z,0.22
2022-10-03T00:17:03.152Z,0.28
2022-10-03T00:27:14.559Z,0.15
2022-10-03T00:37:27.475Z,0.30
2022-10-03T00:47:35.028Z,0.10
2022-10-03T00:57:42.739Z,0.10
2022-10-03T01:08:25.626Z,0.30
2022-10-03T01:18:38.023Z,0.30
2022-10-03T01:29:02.225Z,0.20
2022-10-03T01:39:19.474Z,0.30
2022-10-03T01:49:32.765Z,0.40
2022-10-03T02:00:00.661Z,0.38
2022-10-03T02:10:36.517Z,0.45
2022-10-03T02:20:47.740Z,0.22
2022-10-03T02:31:33.929Z,0.20
2022-10-03T02:41:57.303Z,0.30
2022-10-03T02:52:18.286Z,0.20
2022-10-03T03:02:54.644Z,0.22
2022-10-03T03:13:07.096Z,0.10
2022-10-03T03:23:47.096Z,0.20
2022-10-03T03:33:57.491Z,0.20
2022-10-03T03:44:26.864Z,0.40
2022-10-03T03:54:51.227Z,0.30
2022-10-03T04:05:15.105Z,0.30
2022-10-03T04:15:26.885Z,0.20
2022-10-03T04:25:31.916Z,0.30
2022-10-03T04:35:51.416Z,0.80
2022-10-03T04:46:05.066Z,0.55
2022-10-03T04:56:34.250Z,0.70
2022-10-03T05:07:00.605Z,0.60
2022-10-03T05:17:28.385Z,0.60
2022-10-03T05:27:35.661Z,0.60
2022-10-03T05:37:55.271Z,0.60
2022-10-03T05:48:19.421Z,0.65
2022-10-03T05:58:43.192Z,0.20
2022-10-03T06:09:18.284Z,0.30
2022-10-03T06:19:43.369Z,0.50
2022-10-03T06:30:16.738Z,0.20
2022-10-03T06:40:50.910Z,0.30
2022-10-03T06:51:16.700Z,0.32
2022-10-03T07:01:40.323Z,0.50
2022-10-03T07:11:46.786Z,0.63
2022-10-03T07:22:13.534Z,0.47
2022-10-03T07:32:23.600Z,0.50
2022-10-03T07:42:53.549Z,0.52
2022-10-03T07:53:13.852Z,1.00
2022-10-03T08:03:28.163Z,2.15
2022-10-03T08:13:41.681Z,1.20
2022-10-03T08:24:24.893Z,0.90
2022-10-03T08:34:55.249Z,0.90
2022-10-03T08:45:19.616Z,1.00
2022-10-03T08:55:48.069Z,0.75
2022-10-03T09:05:58.779Z,0.82
2022-10-03T09:16:28.263Z,0.85
2022-10-03T09:26:44.821Z,0.60
2022-10-03T09:37:24.205Z,0.40
2022-10-03T09:48:03.377Z,0.80
2022-10-03T09:58:17.625Z,0.90
2022-10-03T10:08:28.080Z,0.70
2022-10-03T10:18:35.573Z,0.60
2022-10-03T10:28:53.346Z,0.50
2022-10-03T10:39:32.618Z,0.52
2022-10-03T10:50:11.426Z,0.40
2022-10-03T11:00:34.815Z,0.50
2022-10-03T11:10:40.242Z,0.43
2022-10-03T11:21:00.526Z,0.30
2022-10-03T11:31:15.889Z,0.50
2022-10-03T11:51:43.850Z,0.40
2022-10-03T12:02:13.625Z,0.40
2022-10-03T12:12:28.103Z,0.57
2022-10-03T12:22:57.118Z,0.47
2022-10-03T12:33:11.000Z,0.50
2022-10-03T12:43:29.941Z,0.50
2022-10-03T12:53:53.316Z,0.75
2022-10-03T13:04:05.682Z,0.28
2022-10-03T13:14:45.546Z,0.35
2022-10-03T13:24:52.470Z,0.30
2022-10-03T13:35:39.528Z,0.20
2022-10-03T13:45:44.297Z,0.40
2022-10-03T13:55:52.863Z,0.40
2022-10-03T14:06:04.756Z,0.40
2022-10-03T14:16:20.337Z,0.75
2022-10-03T14:26:30.038Z,0.40
2022-10-03T14:36:49.892Z,0.47
2022-10-03T14:46:57.661Z,0.30
2022-10-03T14:57:24.958Z,0.40
2022-10-03T15:07:39.198Z,0.30
2022-10-03T15:17:51.789Z,0.30
2022-10-03T15:27:54.610Z,0.38
2022-10-03T15:38:10.830Z,0.38
2022-10-03T15:48:17.571Z,0.68
2022-10-03T15:58:25.616Z,0.20
2022-10-03T16:08:29.522Z,0.30
2022-10-03T16:19:01.855Z,0.35
2022-10-03T16:29:13.269Z,0.28
2022-10-03T16:39:25.057Z,0.60
2022-10-03T16:49:56.484Z,0.20
2022-10-03T17:00:00.217Z,0.30
2022-10-03T17:10:02.193Z,0.30
2022-10-03T17:20:10.354Z,0.50
2022-10-03T17:30:12.285Z,0.32
2022-10-03T17:40:23.095Z,0.47
2022-10-03T17:50:31.058Z,0.20
2022-10-03T18:00:59.054Z,0.30
2022-10-03T18:11:02.419Z,0.32
2022-10-03T18:21:12.943Z,0.40
2022-10-03T18:31:19.997Z,0.30
2022-10-03T18:41:21.693Z,0.22
2022-10-03T18:51:38.482Z,0.30
2022-10-03T19:01:53.221Z,0.40
2022-10-03T19:12:33.598Z,0.50
2022-10-03T19:22:39.801Z,0.40
2022-10-03T19:32:41.201Z,0.50
2022-10-03T19:42:47.710Z,0.55
2022-10-03T19:52:49.380Z,0.43
2022-10-03T20:03:15.896Z,0.60
2022-10-03T20:13:17.447Z,0.60
2022-10-03T20:23:21.145Z,0.80
2022-10-03T20:33:31.712Z,0.40
2022-10-03T20:43:41.678Z,0.50
2022-10-03T20:53:43.643Z,0.55
2022-10-03T21:04:03.859Z,0.50
2022-10-03T21:14:20.540Z,0.60
2022-10-03T21:24:27.969Z,0.50
2022-10-03T21:34:52.255Z,0.70
2022-10-03T21:45:14.244Z,0.82
2022-10-03T21:55:50.674Z,0.77
2022-10-03T22:05:58.769Z,0.40
2022-10-03T22:16:21.277Z,0.60
2022-10-03T22:26:43.069Z,0.85
2022-10-03T22:36:44.753Z,0.60
2022-10-03T22:46:49.213Z,0.60
2022-10-03T22:56:58.610Z,0.50
2022-10-03T23:07:03.028Z,0.60
2022-10-03T23:17:20.125Z,0.53
2022-10-03T23:27:27.013Z,0.60
2022-10-03T23:37:40.146Z,0.52
2022-10-03T23:48:02.185Z,0.55
2022-10-03T23:58:22.639Z,0.40
